sensor_id;sensor_type;location;lat;lon;timestamp;P1;durP1;ratioP1;P2;durP2;ratioP2
78875;SDS011;68253;52.506;5.486;2023-05-10T00:00:45;8.13;;;3.00;;
78875;SDS011;68253;52.506;5.486;2023-05-10T00:03:11;9.32;;;3.25;;
78875;SDS011;68253;52.506;5.486;2023-05-10T00:05:38;9.68;;;3.67;;
78875;SDS011;68253;52.506;5.486;2023-05-10T00:08:04;12.82;;;4.28;;
78875;SDS011;68253;52.506;5.486;2023-05-10T00:10:30;9.55;;;3.25;;
78875;SDS011;68253;52.506;5.486;2023-05-10T00:12:56;9.50;;;3.33;;
78875;SDS011;68253;52.506;5.486;2023-05-10T00:15:22;9.73;;;3.33;;
78875;SDS011;68253;52.506;5.486;2023-05-10T00:17:48;10.80;;;4.03;;
78875;SDS011;68253;52.506;5.486;2023-05-10T00:20:14;9.25;;;3.08;;
78875;SDS011;68253;52.506;5.486;2023-05-10T00:22:41;9.13;;;2.83;;
78875;SDS011;68253;52.506;5.486;2023-05-10T00:25:07;10.45;;;3.53;;
78875;SDS011;68253;52.506;5.486;2023-05-10T00:27:34;10.82;;;3.22;;
78875;SDS011;68253;52.506;5.486;2023-05-10T00:30:00;9.25;;;3.25;;
78875;SDS011;68253;52.506;5.486;2023-05-10T00:32:26;9.63;;;3.33;;
78875;SDS011;68253;52.506;5.486;2023-05-10T00:34:52;9.80;;;3.42;;
78875;SDS011;68253;52.506;5.486;2023-05-10T00:37:18;10.73;;;3.75;;
78875;SDS011;68253;52.506;5.486;2023-05-10T00:39:45;9.13;;;3.10;;
78875;SDS011;68253;52.506;5.486;2023-05-10T00:42:11;9.85;;;3.88;;
78875;SDS011;68253;52.506;5.486;2023-05-10T00:44:37;11.15;;;4.05;;
78875;SDS011;68253;52.506;5.486;2023-05-10T00:47:04;9.45;;;3.25;;
78875;SDS011;68253;52.506;5.486;2023-05-10T00:49:31;10.32;;;3.40;;
78875;SDS011;68253;52.506;5.486;2023-05-10T00:51:57;9.43;;;3.30;;
78875;SDS011;68253;52.506;5.486;2023-05-10T00:54:23;10.05;;;3.38;;
78875;SDS011;68253;52.506;5.486;2023-05-10T00:56:50;8.65;;;2.83;;
78875;SDS011;68253;52.506;5.486;2023-05-10T00:59:17;9.82;;;3.38;;
78875;SDS011;68253;52.506;5.486;2023-05-10T01:01:44;9.38;;;2.78;;
78875;SDS011;68253;52.506;5.486;2023-05-10T01:04:11;10.85;;;3.28;;
78875;SDS011;68253;52.506;5.486;2023-05-10T01:06:41;9.88;;;3.70;;
78875;SDS011;68253;52.506;5.486;2023-05-10T01:09:08;11.73;;;3.83;;
78875;SDS011;68253;52.506;5.486;2023-05-10T01:11:35;11.52;;;4.20;;
78875;SDS011;68253;52.506;5.486;2023-05-10T01:14:03;9.60;;;3.08;;
78875;SDS011;68253;52.506;5.486;2023-05-10T01:16:34;9.52;;;3.17;;
78875;SDS011;68253;52.506;5.486;2023-05-10T01:19:04;9.82;;;3.20;;
78875;SDS011;68253;52.506;5.486;2023-05-10T01:22:14;8.85;;;3.08;;
78875;SDS011;68253;52.506;5.486;2023-05-10T01:33:10;9.10;;;2.90;;
78875;SDS011;68253;52.506;5.486;2023-05-10T01:39:11;8.88;;;2.53;;
78875;SDS011;68253;52.506;5.486;2023-05-10T01:41:54;11.25;;;3.55;;
78875;SDS011;68253;52.506;5.486;2023-05-10T01:47:30;10.52;;;3.50;;
78875;SDS011;68253;52.506;5.486;2023-05-10T01:50:03;12.10;;;4.60;;
78875;SDS011;68253;52.506;5.486;2023-05-10T01:52:33;8.95;;;2.70;;
78875;SDS011;68253;52.506;5.486;2023-05-10T01:55:08;8.88;;;2.65;;
78875;SDS011;68253;52.506;5.486;2023-05-10T01:57:37;8.05;;;2.35;;
78875;SDS011;68253;52.506;5.486;2023-05-10T02:00:05;7.78;;;2.60;;
78875;SDS011;68253;52.506;5.486;2023-05-10T02:02:44;8.30;;;2.50;;
78875;SDS011;68253;52.506;5.486;2023-05-10T02:05:12;8.85;;;3.20;;
78875;SDS011;68253;52.506;5.486;2023-05-10T02:07:40;10.77;;;3.80;;
78875;SDS011;68253;52.506;5.486;2023-05-10T02:10:07;9.75;;;3.53;;
78875;SDS011;68253;52.506;5.486;2023-05-10T02:12:36;9.90;;;3.58;;
78875;SDS011;68253;52.506;5.486;2023-05-10T02:15:05;10.63;;;3.55;;
78875;SDS011;68253;52.506;5.486;2023-05-10T02:17:34;10.25;;;3.55;;
78875;SDS011;68253;52.506;5.486;2023-05-10T02:20:03;10.23;;;3.05;;
78875;SDS011;68253;52.506;5.486;2023-05-10T02:22:32;10.68;;;3.05;;
78875;SDS011;68253;52.506;5.486;2023-05-10T02:25:00;10.63;;;3.75;;
78875;SDS011;68253;52.506;5.486;2023-05-10T02:27:27;9.40;;;3.05;;
78875;SDS011;68253;52.506;5.486;2023-05-10T02:29:54;10.82;;;3.45;;
78875;SDS011;68253;52.506;5.486;2023-05-10T02:32:22;10.70;;;3.80;;
78875;SDS011;68253;52.506;5.486;2023-05-10T02:34:51;13.80;;;4.50;;
78875;SDS011;68253;52.506;5.486;2023-05-10T02:37:19;12.65;;;4.95;;
78875;SDS011;68253;52.506;5.486;2023-05-10T02:39:47;11.25;;;3.92;;
78875;SDS011;68253;52.506;5.486;2023-05-10T02:42:15;10.02;;;3.70;;
78875;SDS011;68253;52.506;5.486;2023-05-10T02:44:45;10.77;;;4.22;;
78875;SDS011;68253;52.506;5.486;2023-05-10T02:47:14;10.52;;;4.18;;
78875;SDS011;68253;52.506;5.486;2023-05-10T02:49:40;13.23;;;4.75;;
78875;SDS011;68253;52.506;5.486;2023-05-10T02:52:07;12.77;;;4.95;;
78875;SDS011;68253;52.506;5.486;2023-05-10T02:54:39;13.23;;;4.88;;
78875;SDS011;68253;52.506;5.486;2023-05-10T02:57:10;11.75;;;4.20;;
78875;SDS011;68253;52.506;5.486;2023-05-10T02:59:40;12.77;;;5.30;;
78875;SDS011;68253;52.506;5.486;2023-05-10T03:02:09;14.27;;;6.10;;
78875;SDS011;68253;52.506;5.486;2023-05-10T03:04:36;13.43;;;5.70;;
78875;SDS011;68253;52.506;5.486;2023-05-10T03:07:02;11.63;;;4.72;;
78875;SDS011;68253;52.506;5.486;2023-05-10T03:09:28;14.35;;;5.13;;
78875;SDS011;68253;52.506;5.486;2023-05-10T03:12:14;13.23;;;4.25;;
78875;SDS011;68253;52.506;5.486;2023-05-10T03:17:56;11.52;;;4.60;;
78875;SDS011;68253;52.506;5.486;2023-05-10T03:20:50;12.40;;;4.60;;
78875;SDS011;68253;52.506;5.486;2023-05-10T03:23:22;10.85;;;4.22;;
78875;SDS011;68253;52.506;5.486;2023-05-10T03:25:48;12.85;;;5.90;;
78875;SDS011;68253;52.506;5.486;2023-05-10T03:28:16;10.90;;;4.43;;
78875;SDS011;68253;52.506;5.486;2023-05-10T03:30:44;12.88;;;5.28;;
78875;SDS011;68253;52.506;5.486;2023-05-10T03:33:12;11.23;;;3.97;;
78875;SDS011;68253;52.506;5.486;2023-05-10T03:35:41;10.00;;;4.00;;
78875;SDS011;68253;52.506;5.486;2023-05-10T03:38:10;11.50;;;4.60;;
78875;SDS011;68253;52.506;5.486;2023-05-10T03:40:36;11.65;;;4.85;;
78875;SDS011;68253;52.506;5.486;2023-05-10T03:43:03;12.68;;;5.32;;
78875;SDS011;68253;52.506;5.486;2023-05-10T03:45:29;11.30;;;4.20;;
78875;SDS011;68253;52.506;5.486;2023-05-10T03:47:56;14.13;;;4.85;;
78875;SDS011;68253;52.506;5.486;2023-05-10T03:50:23;11.63;;;4.35;;
78875;SDS011;68253;52.506;5.486;2023-05-10T03:52:50;10.15;;;3.80;;
78875;SDS011;68253;52.506;5.486;2023-05-10T03:55:16;13.52;;;5.43;;
78875;SDS011;68253;52.506;5.486;2023-05-10T03:57:42;13.68;;;5.65;;
78875;SDS011;68253;52.506;5.486;2023-05-10T04:00:09;12.43;;;5.00;;
78875;SDS011;68253;52.506;5.486;2023-05-10T04:02:41;12.82;;;5.20;;
78875;SDS011;68253;52.506;5.486;2023-05-10T04:05:11;12.77;;;5.07;;
78875;SDS011;68253;52.506;5.486;2023-05-10T04:07:38;13.32;;;5.57;;
78875;SDS011;68253;52.506;5.486;2023-05-10T04:10:04;13.13;;;5.57;;
78875;SDS011;68253;52.506;5.486;2023-05-10T04:12:30;12.77;;;5.07;;
78875;SDS011;68253;52.506;5.486;2023-05-10T04:14:56;16.25;;;6.68;;
78875;SDS011;68253;52.506;5.486;2023-05-10T04:17:22;14.10;;;5.68;;
78875;SDS011;68253;52.506;5.486;2023-05-10T04:19:49;12.93;;;4.93;;
78875;SDS011;68253;52.506;5.486;2023-05-10T04:22:15;11.82;;;4.43;;
78875;SDS011;68253;52.506;5.486;2023-05-10T04:24:41;10.25;;;3.83;;
78875;SDS011;68253;52.506;5.486;2023-05-10T04:27:07;9.30;;;3.20;;
78875;SDS011;68253;52.506;5.486;2023-05-10T04:29:33;9.73;;;3.67;;
78875;SDS011;68253;52.506;5.486;2023-05-10T04:31:59;11.32;;;3.70;;
78875;SDS011;68253;52.506;5.486;2023-05-10T04:34:26;13.95;;;4.35;;
78875;SDS011;68253;52.506;5.486;2023-05-10T04:36:52;10.35;;;3.45;;
78875;SDS011;68253;52.506;5.486;2023-05-10T04:39:18;12.55;;;4.25;;
78875;SDS011;68253;52.506;5.486;2023-05-10T04:41:44;10.85;;;3.63;;
78875;SDS011;68253;52.506;5.486;2023-05-10T04:44:10;12.57;;;3.88;;
78875;SDS011;68253;52.506;5.486;2023-05-10T04:46:36;11.05;;;3.40;;
78875;SDS011;68253;52.506;5.486;2023-05-10T04:49:02;10.88;;;3.47;;
78875;SDS011;68253;52.506;5.486;2023-05-10T04:51:29;9.75;;;2.88;;
78875;SDS011;68253;52.506;5.486;2023-05-10T04:53:55;9.88;;;2.88;;
78875;SDS011;68253;52.506;5.486;2023-05-10T04:56:21;11.55;;;3.60;;
78875;SDS011;68253;52.506;5.486;2023-05-10T04:58:47;10.73;;;3.15;;
78875;SDS011;68253;52.506;5.486;2023-05-10T05:01:15;12.13;;;4.43;;
78875;SDS011;68253;52.506;5.486;2023-05-10T05:03:41;13.38;;;3.90;;
78875;SDS011;68253;52.506;5.486;2023-05-10T05:06:07;11.13;;;3.35;;
78875;SDS011;68253;52.506;5.486;2023-05-10T05:08:34;9.88;;;3.55;;
78875;SDS011;68253;52.506;5.486;2023-05-10T05:11:00;19.52;;;5.68;;
78875;SDS011;68253;52.506;5.486;2023-05-10T05:13:26;10.98;;;3.33;;
78875;SDS011;68253;52.506;5.486;2023-05-10T05:15:52;14.38;;;4.68;;
78875;SDS011;68253;52.506;5.486;2023-05-10T05:18:18;11.32;;;3.63;;
78875;SDS011;68253;52.506;5.486;2023-05-10T05:20:45;11.73;;;3.17;;
78875;SDS011;68253;52.506;5.486;2023-05-10T05:23:11;11.02;;;3.53;;
78875;SDS011;68253;52.506;5.486;2023-05-10T05:25:37;10.65;;;3.22;;
78875;SDS011;68253;52.506;5.486;2023-05-10T05:28:03;11.57;;;3.75;;
78875;SDS011;68253;52.506;5.486;2023-05-10T05:30:29;13.90;;;4.18;;
78875;SDS011;68253;52.506;5.486;2023-05-10T05:32:55;10.77;;;3.30;;
78875;SDS011;68253;52.506;5.486;2023-05-10T05:35:22;10.18;;;3.17;;
78875;SDS011;68253;52.506;5.486;2023-05-10T05:37:48;10.18;;;2.83;;
78875;SDS011;68253;52.506;5.486;2023-05-10T05:40:14;9.27;;;2.90;;
78875;SDS011;68253;52.506;5.486;2023-05-10T05:42:40;10.68;;;3.20;;
78875;SDS011;68253;52.506;5.486;2023-05-10T05:45:07;11.48;;;3.70;;
78875;SDS011;68253;52.506;5.486;2023-05-10T05:47:34;11.00;;;3.55;;
78875;SDS011;68253;52.506;5.486;2023-05-10T05:50:00;11.02;;;3.90;;
78875;SDS011;68253;52.506;5.486;2023-05-10T05:52:26;10.80;;;3.53;;
78875;SDS011;68253;52.506;5.486;2023-05-10T05:54:52;10.88;;;3.03;;
78875;SDS011;68253;52.506;5.486;2023-05-10T05:57:18;8.95;;;3.00;;
78875;SDS011;68253;52.506;5.486;2023-05-10T05:59:45;11.23;;;3.13;;
78875;SDS011;68253;52.506;5.486;2023-05-10T06:02:11;8.65;;;2.90;;
78875;SDS011;68253;52.506;5.486;2023-05-10T06:04:37;9.98;;;3.22;;
78875;SDS011;68253;52.506;5.486;2023-05-10T06:07:03;11.70;;;4.25;;
78875;SDS011;68253;52.506;5.486;2023-05-10T06:09:29;9.05;;;2.80;;
78875;SDS011;68253;52.506;5.486;2023-05-10T06:11:55;9.93;;;3.85;;
78875;SDS011;68253;52.506;5.486;2023-05-10T06:14:22;8.75;;;2.67;;
78875;SDS011;68253;52.506;5.486;2023-05-10T06:16:48;11.40;;;4.15;;
78875;SDS011;68253;52.506;5.486;2023-05-10T06:19:15;10.50;;;3.95;;
78875;SDS011;68253;52.506;5.486;2023-05-10T06:21:41;10.43;;;3.88;;
78875;SDS011;68253;52.506;5.486;2023-05-10T06:24:07;10.10;;;3.78;;
78875;SDS011;68253;52.506;5.486;2023-05-10T06:26:33;10.32;;;3.78;;
78875;SDS011;68253;52.506;5.486;2023-05-10T06:28:59;9.27;;;3.30;;
78875;SDS011;68253;52.506;5.486;2023-05-10T06:31:26;11.55;;;3.70;;
78875;SDS011;68253;52.506;5.486;2023-05-10T06:33:52;11.23;;;4.30;;
78875;SDS011;68253;52.506;5.486;2023-05-10T06:36:19;10.52;;;4.57;;
78875;SDS011;68253;52.506;5.486;2023-05-10T06:38:45;10.63;;;3.63;;
78875;SDS011;68253;52.506;5.486;2023-05-10T06:41:11;12.60;;;4.00;;
78875;SDS011;68253;52.506;5.486;2023-05-10T06:43:37;10.77;;;3.60;;
78875;SDS011;68253;52.506;5.486;2023-05-10T06:46:06;12.32;;;4.25;;
78875;SDS011;68253;52.506;5.486;2023-05-10T06:48:33;12.90;;;4.50;;
78875;SDS011;68253;52.506;5.486;2023-05-10T06:50:59;11.88;;;4.35;;
78875;SDS011;68253;52.506;5.486;2023-05-10T06:53:25;14.38;;;5.07;;
78875;SDS011;68253;52.506;5.486;2023-05-10T06:55:51;12.65;;;3.88;;
78875;SDS011;68253;52.506;5.486;2023-05-10T06:58:18;9.75;;;3.65;;
78875;SDS011;68253;52.506;5.486;2023-05-10T07:00:44;11.10;;;4.45;;
78875;SDS011;68253;52.506;5.486;2023-05-10T07:03:10;12.00;;;4.32;;
78875;SDS011;68253;52.506;5.486;2023-05-10T07:05:36;11.05;;;3.53;;
78875;SDS011;68253;52.506;5.486;2023-05-10T07:08:03;9.25;;;3.58;;
78875;SDS011;68253;52.506;5.486;2023-05-10T07:10:29;13.88;;;5.38;;
78875;SDS011;68253;52.506;5.486;2023-05-10T07:12:55;10.43;;;4.30;;
78875;SDS011;68253;52.506;5.486;2023-05-10T07:15:21;13.77;;;5.18;;
78875;SDS011;68253;52.506;5.486;2023-05-10T07:17:48;12.68;;;4.95;;
78875;SDS011;68253;52.506;5.486;2023-05-10T07:20:14;10.90;;;3.58;;
78875;SDS011;68253;52.506;5.486;2023-05-10T07:22:40;9.43;;;3.10;;
78875;SDS011;68253;52.506;5.486;2023-05-10T07:25:06;9.88;;;3.67;;
78875;SDS011;68253;52.506;5.486;2023-05-10T07:27:33;11.75;;;4.18;;
78875;SDS011;68253;52.506;5.486;2023-05-10T07:29:59;10.77;;;3.75;;
78875;SDS011;68253;52.506;5.486;2023-05-10T07:32:25;10.27;;;3.85;;
78875;SDS011;68253;52.506;5.486;2023-05-10T07:34:52;12.10;;;4.80;;
78875;SDS011;68253;52.506;5.486;2023-05-10T07:37:18;13.73;;;5.78;;
78875;SDS011;68253;52.506;5.486;2023-05-10T07:39:44;11.52;;;4.05;;
78875;SDS011;68253;52.506;5.486;2023-05-10T07:42:10;11.00;;;4.13;;
78875;SDS011;68253;52.506;5.486;2023-05-10T07:44:36;10.32;;;3.80;;
78875;SDS011;68253;52.506;5.486;2023-05-10T07:47:02;11.20;;;3.97;;
78875;SDS011;68253;52.506;5.486;2023-05-10T07:49:28;9.18;;;3.38;;
78875;SDS011;68253;52.506;5.486;2023-05-10T07:51:54;9.95;;;3.70;;
78875;SDS011;68253;52.506;5.486;2023-05-10T07:54:21;10.60;;;3.50;;
78875;SDS011;68253;52.506;5.486;2023-05-10T07:56:47;12.35;;;4.05;;
78875;SDS011;68253;52.506;5.486;2023-05-10T07:59:17;11.55;;;4.30;;
78875;SDS011;68253;52.506;5.486;2023-05-10T08:01:43;9.75;;;3.85;;
78875;SDS011;68253;52.506;5.486;2023-05-10T08:04:09;11.05;;;4.57;;
78875;SDS011;68253;52.506;5.486;2023-05-10T08:06:37;12.95;;;5.55;;
78875;SDS011;68253;52.506;5.486;2023-05-10T08:09:03;12.85;;;4.97;;
78875;SDS011;68253;52.506;5.486;2023-05-10T08:11:29;10.65;;;3.97;;
78875;SDS011;68253;52.506;5.486;2023-05-10T08:13:55;10.55;;;4.30;;
78875;SDS011;68253;52.506;5.486;2023-05-10T08:16:21;11.10;;;3.90;;
78875;SDS011;68253;52.506;5.486;2023-05-10T08:18:47;11.82;;;5.43;;
78875;SDS011;68253;52.506;5.486;2023-05-10T08:21:14;11.82;;;4.28;;
78875;SDS011;68253;52.506;5.486;2023-05-10T08:23:41;10.30;;;4.03;;
78875;SDS011;68253;52.506;5.486;2023-05-10T08:26:09;11.40;;;4.75;;
78875;SDS011;68253;52.506;5.486;2023-05-10T08:28:35;12.52;;;4.75;;
78875;SDS011;68253;52.506;5.486;2023-05-10T08:31:01;9.45;;;3.70;;
78875;SDS011;68253;52.506;5.486;2023-05-10T08:33:27;9.57;;;3.33;;
78875;SDS011;68253;52.506;5.486;2023-05-10T08:35:53;10.80;;;3.78;;
78875;SDS011;68253;52.506;5.486;2023-05-10T08:38:19;10.07;;;4.65;;
78875;SDS011;68253;52.506;5.486;2023-05-10T08:40:46;14.15;;;5.15;;
78875;SDS011;68253;52.506;5.486;2023-05-10T08:43:16;13.50;;;5.32;;
78875;SDS011;68253;52.506;5.486;2023-05-10T08:45:43;9.90;;;3.25;;
78875;SDS011;68253;52.506;5.486;2023-05-10T08:48:13;12.55;;;4.90;;
78875;SDS011;68253;52.506;5.486;2023-05-10T08:50:40;12.13;;;5.22;;
78875;SDS011;68253;52.506;5.486;2023-05-10T08:53:12;12.35;;;4.88;;
78875;SDS011;68253;52.506;5.486;2023-05-10T08:55:39;10.73;;;4.60;;
78875;SDS011;68253;52.506;5.486;2023-05-10T08:58:07;9.15;;;3.63;;
78875;SDS011;68253;52.506;5.486;2023-05-10T09:00:34;11.07;;;3.80;;
78875;SDS011;68253;52.506;5.486;2023-05-10T09:03:02;12.20;;;4.85;;
78875;SDS011;68253;52.506;5.486;2023-05-10T09:05:30;11.93;;;4.65;;
78875;SDS011;68253;52.506;5.486;2023-05-10T09:07:56;11.23;;;4.40;;
78875;SDS011;68253;52.506;5.486;2023-05-10T09:10:22;10.90;;;3.97;;
78875;SDS011;68253;52.506;5.486;2023-05-10T09:12:51;10.98;;;4.45;;
78875;SDS011;68253;52.506;5.486;2023-05-10T09:15:18;11.18;;;3.50;;
78875;SDS011;68253;52.506;5.486;2023-05-10T09:17:45;12.73;;;4.38;;
78875;SDS011;68253;52.506;5.486;2023-05-10T09:20:14;9.50;;;3.38;;
78875;SDS011;68253;52.506;5.486;2023-05-10T09:22:42;10.75;;;3.78;;
78875;SDS011;68253;52.506;5.486;2023-05-10T09:25:10;11.73;;;4.38;;
78875;SDS011;68253;52.506;5.486;2023-05-10T09:27:38;8.73;;;3.30;;
78875;SDS011;68253;52.506;5.486;2023-05-10T09:30:06;10.10;;;3.95;;
78875;SDS011;68253;52.506;5.486;2023-05-10T09:32:40;10.52;;;3.95;;
78875;SDS011;68253;52.506;5.486;2023-05-10T09:35:20;10.48;;;4.38;;
78875;SDS011;68253;52.506;5.486;2023-05-10T09:37:50;11.00;;;4.20;;
78875;SDS011;68253;52.506;5.486;2023-05-10T09:40:18;11.68;;;5.32;;
78875;SDS011;68253;52.506;5.486;2023-05-10T09:42:53;13.80;;;4.47;;
78875;SDS011;68253;52.506;5.486;2023-05-10T09:45:24;10.82;;;3.63;;
78875;SDS011;68253;52.506;5.486;2023-05-10T09:47:52;11.65;;;4.15;;
78875;SDS011;68253;52.506;5.486;2023-05-10T09:50:19;9.43;;;3.28;;
78875;SDS011;68253;52.506;5.486;2023-05-10T09:52:50;9.00;;;2.67;;
78875;SDS011;68253;52.506;5.486;2023-05-10T09:55:25;9.45;;;3.63;;
78875;SDS011;68253;52.506;5.486;2023-05-10T09:58:03;11.60;;;4.50;;
78875;SDS011;68253;52.506;5.486;2023-05-10T10:00:34;8.30;;;3.00;;
78875;SDS011;68253;52.506;5.486;2023-05-10T10:03:05;10.75;;;4.10;;
78875;SDS011;68253;52.506;5.486;2023-05-10T10:05:35;10.35;;;3.80;;
78875;SDS011;68253;52.506;5.486;2023-05-10T10:08:04;10.20;;;3.75;;
78875;SDS011;68253;52.506;5.486;2023-05-10T10:10:31;11.55;;;4.45;;
78875;SDS011;68253;52.506;5.486;2023-05-10T10:12:58;9.65;;;3.10;;
78875;SDS011;68253;52.506;5.486;2023-05-10T10:15:25;10.68;;;3.88;;
78875;SDS011;68253;52.506;5.486;2023-05-10T10:17:52;9.02;;;2.83;;
78875;SDS011;68253;52.506;5.486;2023-05-10T10:20:19;12.18;;;4.15;;
78875;SDS011;68253;52.506;5.486;2023-05-10T10:22:46;9.60;;;3.40;;
78875;SDS011;68253;52.506;5.486;2023-05-10T10:25:14;9.95;;;3.33;;
78875;SDS011;68253;52.506;5.486;2023-05-10T10:30:27;9.23;;;3.20;;
78875;SDS011;68253;52.506;5.486;2023-05-10T10:33:06;7.38;;;2.45;;
78875;SDS011;68253;52.506;5.486;2023-05-10T10:36:14;9.68;;;3.55;;
78875;SDS011;68253;52.506;5.486;2023-05-10T10:41:10;8.32;;;2.97;;
78875;SDS011;68253;52.506;5.486;2023-05-10T10:49:49;7.90;;;2.78;;
78875;SDS011;68253;52.506;5.486;2023-05-10T10:52:32;13.40;;;3.88;;
78875;SDS011;68253;52.506;5.486;2023-05-10T10:57:42;7.63;;;2.65;;
78875;SDS011;68253;52.506;5.486;2023-05-10T11:05:25;7.63;;;2.40;;
78875;SDS011;68253;52.506;5.486;2023-05-10T11:07:55;7.68;;;2.47;;
78875;SDS011;68253;52.506;5.486;2023-05-10T11:10:23;8.40;;;3.10;;
78875;SDS011;68253;52.506;5.486;2023-05-10T11:12:55;9.38;;;3.70;;
78875;SDS011;68253;52.506;5.486;2023-05-10T11:15:32;8.68;;;3.50;;
78875;SDS011;68253;52.506;5.486;2023-05-10T11:17:59;8.05;;;2.42;;
78875;SDS011;68253;52.506;5.486;2023-05-10T11:20:41;10.85;;;4.07;;
78875;SDS011;68253;52.506;5.486;2023-05-10T11:23:11;7.00;;;2.33;;
78875;SDS011;68253;52.506;5.486;2023-05-10T11:25:41;8.95;;;3.10;;
78875;SDS011;68253;52.506;5.486;2023-05-10T11:28:09;8.95;;;2.90;;
78875;SDS011;68253;52.506;5.486;2023-05-10T11:30:36;9.90;;;4.28;;
78875;SDS011;68253;52.506;5.486;2023-05-10T11:33:05;9.13;;;3.50;;
78875;SDS011;68253;52.506;5.486;2023-05-10T11:35:38;8.93;;;3.03;;
78875;SDS011;68253;52.506;5.486;2023-05-10T11:38:09;8.30;;;3.00;;
78875;SDS011;68253;52.506;5.486;2023-05-10T11:40:46;8.10;;;2.60;;
78875;SDS011;68253;52.506;5.486;2023-05-10T11:43:17;11.15;;;3.60;;
78875;SDS011;68253;52.506;5.486;2023-05-10T11:45:43;8.52;;;3.20;;
78875;SDS011;68253;52.506;5.486;2023-05-10T11:48:10;10.15;;;4.03;;
78875;SDS011;68253;52.506;5.486;2023-05-10T11:50:37;9.73;;;3.65;;
78875;SDS011;68253;52.506;5.486;2023-05-10T11:53:03;11.55;;;4.43;;
78875;SDS011;68253;52.506;5.486;2023-05-10T11:55:29;8.63;;;2.60;;
78875;SDS011;68253;52.506;5.486;2023-05-10T11:58:00;11.68;;;4.72;;
78875;SDS011;68253;52.506;5.486;2023-05-10T12:00:27;9.93;;;2.83;;
78875;SDS011;68253;52.506;5.486;2023-05-10T12:02:53;9.07;;;3.35;;
78875;SDS011;68253;52.506;5.486;2023-05-10T12:05:19;9.32;;;3.38;;
78875;SDS011;68253;52.506;5.486;2023-05-10T12:07:45;8.48;;;2.83;;
78875;SDS011;68253;52.506;5.486;2023-05-10T12:10:12;11.52;;;4.45;;
78875;SDS011;68253;52.506;5.486;2023-05-10T12:12:43;9.55;;;3.80;;
78875;SDS011;68253;52.506;5.486;2023-05-10T12:15:12;11.57;;;3.92;;
78875;SDS011;68253;52.506;5.486;2023-05-10T12:17:49;11.27;;;4.60;;
78875;SDS011;68253;52.506;5.486;2023-05-10T12:20:19;12.73;;;4.35;;
78875;SDS011;68253;52.506;5.486;2023-05-10T12:22:50;11.15;;;3.70;;
78875;SDS011;68253;52.506;5.486;2023-05-10T12:25:21;8.77;;;3.33;;
78875;SDS011;68253;52.506;5.486;2023-05-10T12:27:49;9.55;;;3.40;;
78875;SDS011;68253;52.506;5.486;2023-05-10T12:30:29;8.43;;;3.00;;
78875;SDS011;68253;52.506;5.486;2023-05-10T12:33:00;7.63;;;2.78;;
78875;SDS011;68253;52.506;5.486;2023-05-10T12:35:42;10.02;;;3.70;;
78875;SDS011;68253;52.506;5.486;2023-05-10T12:41:16;7.85;;;2.58;;
78875;SDS011;68253;52.506;5.486;2023-05-10T12:43:43;6.85;;;2.10;;
78875;SDS011;68253;52.506;5.486;2023-05-10T12:46:14;7.57;;;2.38;;
78875;SDS011;68253;52.506;5.486;2023-05-10T12:48:42;8.90;;;2.80;;
78875;SDS011;68253;52.506;5.486;2023-05-10T12:51:09;8.50;;;2.80;;
78875;SDS011;68253;52.506;5.486;2023-05-10T12:53:37;8.43;;;2.75;;
78875;SDS011;68253;52.506;5.486;2023-05-10T12:56:05;7.65;;;2.30;;
78875;SDS011;68253;52.506;5.486;2023-05-10T12:58:31;8.20;;;2.75;;
78875;SDS011;68253;52.506;5.486;2023-05-10T13:00:57;8.35;;;3.33;;
78875;SDS011;68253;52.506;5.486;2023-05-10T13:03:24;9.38;;;3.50;;
78875;SDS011;68253;52.506;5.486;2023-05-10T13:05:50;9.32;;;3.40;;
78875;SDS011;68253;52.506;5.486;2023-05-10T13:08:17;7.95;;;2.55;;
78875;SDS011;68253;52.506;5.486;2023-05-10T13:10:43;8.23;;;2.85;;
78875;SDS011;68253;52.506;5.486;2023-05-10T13:13:09;9.95;;;3.80;;
78875;SDS011;68253;52.506;5.486;2023-05-10T13:15:36;9.70;;;3.60;;
78875;SDS011;68253;52.506;5.486;2023-05-10T13:18:02;9.70;;;3.30;;
78875;SDS011;68253;52.506;5.486;2023-05-10T13:20:28;9.63;;;3.65;;
78875;SDS011;68253;52.506;5.486;2023-05-10T13:22:54;9.30;;;3.20;;
78875;SDS011;68253;52.506;5.486;2023-05-10T13:25:20;9.65;;;3.50;;
78875;SDS011;68253;52.506;5.486;2023-05-10T13:27:46;10.20;;;3.80;;
78875;SDS011;68253;52.506;5.486;2023-05-10T13:30:13;8.18;;;2.55;;
78875;SDS011;68253;52.506;5.486;2023-05-10T13:32:39;9.55;;;3.42;;
78875;SDS011;68253;52.506;5.486;2023-05-10T13:35:05;7.65;;;2.92;;
78875;SDS011;68253;52.506;5.486;2023-05-10T13:37:31;8.50;;;2.88;;
78875;SDS011;68253;52.506;5.486;2023-05-10T13:40:01;9.07;;;3.25;;
78875;SDS011;68253;52.506;5.486;2023-05-10T13:42:27;8.02;;;2.83;;
78875;SDS011;68253;52.506;5.486;2023-05-10T13:44:53;7.20;;;2.28;;
78875;SDS011;68253;52.506;5.486;2023-05-10T13:47:20;6.75;;;2.20;;
78875;SDS011;68253;52.506;5.486;2023-05-10T13:49:47;6.43;;;1.83;;
78875;SDS011;68253;52.506;5.486;2023-05-10T13:52:13;5.30;;;1.65;;
78875;SDS011;68253;52.506;5.486;2023-05-10T13:54:39;4.57;;;1.65;;
78875;SDS011;68253;52.506;5.486;2023-05-10T13:57:06;5.85;;;1.90;;
78875;SDS011;68253;52.506;5.486;2023-05-10T13:59:32;6.25;;;1.92;;
78875;SDS011;68253;52.506;5.486;2023-05-10T14:01:59;7.35;;;2.30;;
78875;SDS011;68253;52.506;5.486;2023-05-10T14:06:54;3.90;;;1.35;;
78875;SDS011;68253;52.506;5.486;2023-05-10T14:09:20;4.40;;;1.05;;
78875;SDS011;68253;52.506;5.486;2023-05-10T14:11:46;4.45;;;1.33;;
78875;SDS011;68253;52.506;5.486;2023-05-10T14:14:12;4.35;;;1.20;;
78875;SDS011;68253;52.506;5.486;2023-05-10T14:16:42;3.55;;;1.20;;
78875;SDS011;68253;52.506;5.486;2023-05-10T14:19:10;3.33;;;1.00;;
78875;SDS011;68253;52.506;5.486;2023-05-10T14:21:36;2.25;;;0.70;;
78875;SDS011;68253;52.506;5.486;2023-05-10T14:24:03;4.55;;;1.17;;
78875;SDS011;68253;52.506;5.486;2023-05-10T14:26:30;4.05;;;1.10;;
78875;SDS011;68253;52.506;5.486;2023-05-10T14:28:56;4.05;;;1.50;;
78875;SDS011;68253;52.506;5.486;2023-05-10T14:31:23;4.05;;;1.13;;
78875;SDS011;68253;52.506;5.486;2023-05-10T14:33:50;5.68;;;1.10;;
78875;SDS011;68253;52.506;5.486;2023-05-10T14:36:17;5.25;;;1.42;;
78875;SDS011;68253;52.506;5.486;2023-05-10T14:38:44;6.00;;;1.60;;
78875;SDS011;68253;52.506;5.486;2023-05-10T14:41:10;6.47;;;1.92;;
78875;SDS011;68253;52.506;5.486;2023-05-10T14:43:39;5.32;;;1.67;;
78875;SDS011;68253;52.506;5.486;2023-05-10T14:46:06;6.40;;;1.83;;
78875;SDS011;68253;52.506;5.486;2023-05-10T14:48:32;6.25;;;1.90;;
78875;SDS011;68253;52.506;5.486;2023-05-10T14:50:58;7.25;;;1.88;;
78875;SDS011;68253;52.506;5.486;2023-05-10T14:53:25;4.75;;;1.35;;
78875;SDS011;68253;52.506;5.486;2023-05-10T14:55:51;5.78;;;1.83;;
78875;SDS011;68253;52.506;5.486;2023-05-10T14:58:17;6.93;;;2.47;;
78875;SDS011;68253;52.506;5.486;2023-05-10T15:00:43;6.15;;;1.73;;
78875;SDS011;68253;52.506;5.486;2023-05-10T15:03:10;5.65;;;1.67;;
78875;SDS011;68253;52.506;5.486;2023-05-10T15:05:36;4.05;;;1.20;;
78875;SDS011;68253;52.506;5.486;2023-05-10T15:08:03;5.95;;;1.73;;
78875;SDS011;68253;52.506;5.486;2023-05-10T15:10:31;5.22;;;1.48;;
78875;SDS011;68253;52.506;5.486;2023-05-10T15:12:58;4.50;;;1.40;;
78875;SDS011;68253;52.506;5.486;2023-05-10T15:15:25;2.95;;;1.20;;
78875;SDS011;68253;52.506;5.486;2023-05-10T15:17:51;3.80;;;1.10;;
78875;SDS011;68253;52.506;5.486;2023-05-10T15:20:17;3.47;;;1.10;;
78875;SDS011;68253;52.506;5.486;2023-05-10T15:22:43;2.88;;;0.98;;
78875;SDS011;68253;52.506;5.486;2023-05-10T15:25:10;5.85;;;1.40;;
78875;SDS011;68253;52.506;5.486;2023-05-10T15:27:36;4.43;;;1.25;;